sensor_id;sensor_type;location;lat;lon;timestamp;P1;durP1;ratioP1;P2;durP2;ratioP2
15408;SDS011;7803;48.130;13.788;2023-09-19T00:02:52;7.10;;;5.68;;
15408;SDS011;7803;48.130;13.788;2023-09-19T00:05:54;6.18;;;3.08;;
15408;SDS011;7803;48.130;13.788;2023-09-19T00:09:00;3.35;;;2.80;;
15408;SDS011;7803;48.130;13.788;2023-09-19T00:12:05;3.70;;;3.05;;
15408;SDS011;7803;48.130;13.788;2023-09-19T00:15:09;4.32;;;2.60;;
15408;SDS011;7803;48.130;13.788;2023-09-19T00:18:11;3.75;;;2.05;;
15408;SDS011;7803;48.130;13.788;2023-09-19T00:21:15;4.13;;;2.33;;
15408;SDS011;7803;48.130;13.788;2023-09-19T00:24:19;2.92;;;1.80;;
15408;SDS011;7803;48.130;13.788;2023-09-19T00:27:24;4.43;;;2.60;;
15408;SDS011;7803;48.130;13.788;2023-09-19T00:30:26;3.20;;;2.10;;
15408;SDS011;7803;48.130;13.788;2023-09-19T00:33:28;2.72;;;2.10;;
15408;SDS011;7803;48.130;13.788;2023-09-19T00:36:30;2.63;;;1.98;;
15408;SDS011;7803;48.130;13.788;2023-09-19T00:39:33;1.92;;;1.70;;
15408;SDS011;7803;48.130;13.788;2023-09-19T00:42:37;5.60;;;2.92;;
15408;SDS011;7803;48.130;13.788;2023-09-19T00:45:41;3.63;;;2.28;;
15408;SDS011;7803;48.130;13.788;2023-09-19T00:48:48;3.45;;;2.10;;
15408;SDS011;7803;48.130;13.788;2023-09-19T00:51:50;3.00;;;2.10;;
15408;SDS011;7803;48.130;13.788;2023-09-19T00:54:52;3.83;;;2.38;;
15408;SDS011;7803;48.130;13.788;2023-09-19T00:57:56;2.72;;;2.25;;
15408;SDS011;7803;48.130;13.788;2023-09-19T01:00:58;4.47;;;2.47;;
15408;SDS011;7803;48.130;13.788;2023-09-19T01:04:00;3.67;;;2.30;;
15408;SDS011;7803;48.130;13.788;2023-09-19T01:07:03;3.22;;;2.67;;
15408;SDS011;7803;48.130;13.788;2023-09-19T01:10:05;2.40;;;2.17;;
15408;SDS011;7803;48.130;13.788;2023-09-19T01:13:13;2.63;;;2.10;;
15408;SDS011;7803;48.130;13.788;2023-09-19T01:16:28;3.30;;;2.30;;
15408;SDS011;7803;48.130;13.788;2023-09-19T01:19:46;2.88;;;2.10;;
15408;SDS011;7803;48.130;13.788;2023-09-19T01:23:07;2.95;;;2.28;;
15408;SDS011;7803;48.130;13.788;2023-09-19T01:26:18;3.83;;;2.38;;
15408;SDS011;7803;48.130;13.788;2023-09-19T01:29:46;2.90;;;2.55;;
15408;SDS011;7803;48.130;13.788;2023-09-19T01:32:51;3.88;;;2.78;;
15408;SDS011;7803;48.130;13.788;2023-09-19T01:35:54;2.95;;;2.40;;
15408;SDS011;7803;48.130;13.788;2023-09-19T01:38:58;3.67;;;2.70;;
15408;SDS011;7803;48.130;13.788;2023-09-19T01:42:06;3.25;;;2.67;;
15408;SDS011;7803;48.130;13.788;2023-09-19T01:45:22;3.33;;;2.80;;
15408;SDS011;7803;48.130;13.788;2023-09-19T01:48:35;3.42;;;2.70;;
15408;SDS011;7803;48.130;13.788;2023-09-19T01:51:43;4.00;;;2.70;;
15408;SDS011;7803;48.130;13.788;2023-09-19T01:54:53;3.28;;;2.60;;
15408;SDS011;7803;48.130;13.788;2023-09-19T01:58:04;3.65;;;2.50;;
15408;SDS011;7803;48.130;13.788;2023-09-19T02:01:08;3.00;;;2.33;;
15408;SDS011;7803;48.130;13.788;2023-09-19T02:04:17;2.90;;;2.60;;
15408;SDS011;7803;48.130;13.788;2023-09-19T02:07:19;3.03;;;2.60;;
15408;SDS011;7803;48.130;13.788;2023-09-19T02:10:24;3.00;;;2.60;;
15408;SDS011;7803;48.130;13.788;2023-09-19T02:13:26;3.47;;;2.90;;
15408;SDS011;7803;48.130;13.788;2023-09-19T02:16:30;3.58;;;2.92;;
15408;SDS011;7803;48.130;13.788;2023-09-19T02:19:33;3.50;;;2.72;;
15408;SDS011;7803;48.130;13.788;2023-09-19T02:22:37;3.88;;;2.78;;
15408;SDS011;7803;48.130;13.788;2023-09-19T02:25:39;7.47;;;3.35;;
15408;SDS011;7803;48.130;13.788;2023-09-19T02:28:41;3.60;;;3.13;;
15408;SDS011;7803;48.130;13.788;2023-09-19T02:31:43;4.05;;;3.13;;
15408;SDS011;7803;48.130;13.788;2023-09-19T02:34:47;3.00;;;2.70;;
15408;SDS011;7803;48.130;13.788;2023-09-19T02:37:52;3.17;;;2.60;;
15408;SDS011;7803;48.130;13.788;2023-09-19T02:40:54;3.63;;;2.67;;
15408;SDS011;7803;48.130;13.788;2023-09-19T02:43:56;5.53;;;3.45;;
15408;SDS011;7803;48.130;13.788;2023-09-19T02:46:59;5.30;;;2.97;;
15408;SDS011;7803;48.130;13.788;2023-09-19T02:50:03;3.17;;;2.72;;
15408;SDS011;7803;48.130;13.788;2023-09-19T02:53:05;2.80;;;2.40;;
15408;SDS011;7803;48.130;13.788;2023-09-19T02:56:07;4.22;;;3.13;;
15408;SDS011;7803;48.130;13.788;2023-09-19T02:59:12;3.30;;;2.92;;
15408;SDS011;7803;48.130;13.788;2023-09-19T03:02:14;3.95;;;3.00;;
15408;SDS011;7803;48.130;13.788;2023-09-19T03:05:18;3.78;;;3.20;;
15408;SDS011;7803;48.130;13.788;2023-09-19T03:08:21;3.72;;;3.30;;
15408;SDS011;7803;48.130;13.788;2023-09-19T03:11:23;3.30;;;2.80;;
15408;SDS011;7803;48.130;13.788;2023-09-19T03:14:25;4.07;;;3.05;;
15408;SDS011;7803;48.130;13.788;2023-09-19T03:17:30;6.15;;;3.75;;
15408;SDS011;7803;48.130;13.788;2023-09-19T03:20:34;5.70;;;3.50;;
15408;SDS011;7803;48.130;13.788;2023-09-19T03:23:36;3.53;;;2.97;;
15408;SDS011;7803;48.130;13.788;2023-09-19T03:26:39;3.95;;;2.83;;
15408;SDS011;7803;48.130;13.788;2023-09-19T03:29:41;3.72;;;3.10;;
15408;SDS011;7803;48.130;13.788;2023-09-19T03:32:44;3.72;;;3.30;;
15408;SDS011;7803;48.130;13.788;2023-09-19T03:35:53;3.40;;;2.95;;
15408;SDS011;7803;48.130;13.788;2023-09-19T03:38:55;3.70;;;3.35;;
15408;SDS011;7803;48.130;13.788;2023-09-19T03:41:57;4.32;;;3.35;;
15408;SDS011;7803;48.130;13.788;2023-09-19T03:44:59;4.55;;;3.40;;
15408;SDS011;7803;48.130;13.788;2023-09-19T03:48:07;4.50;;;3.60;;
15408;SDS011;7803;48.130;13.788;2023-09-19T03:51:11;4.97;;;3.90;;
15408;SDS011;7803;48.130;13.788;2023-09-19T03:54:13;4.72;;;3.60;;
15408;SDS011;7803;48.130;13.788;2023-09-19T03:57:16;3.90;;;3.50;;
15408;SDS011;7803;48.130;13.788;2023-09-19T04:00:20;4.80;;;3.70;;
15408;SDS011;7803;48.130;13.788;2023-09-19T04:03:24;3.72;;;3.33;;
15408;SDS011;7803;48.130;13.788;2023-09-19T04:06:36;4.25;;;3.63;;
15408;SDS011;7803;48.130;13.788;2023-09-19T04:09:38;3.97;;;3.53;;
15408;SDS011;7803;48.130;13.788;2023-09-19T04:12:40;4.35;;;3.53;;
15408;SDS011;7803;48.130;13.788;2023-09-19T04:15:42;5.40;;;4.03;;
15408;SDS011;7803;48.130;13.788;2023-09-19T04:18:46;4.57;;;3.38;;
15408;SDS011;7803;48.130;13.788;2023-09-19T04:21:49;4.43;;;3.45;;
15408;SDS011;7803;48.130;13.788;2023-09-19T04:24:51;4.13;;;3.70;;
15408;SDS011;7803;48.130;13.788;2023-09-19T04:27:53;3.92;;;3.50;;
15408;SDS011;7803;48.130;13.788;2023-09-19T04:30:55;4.47;;;3.90;;
15408;SDS011;7803;48.130;13.788;2023-09-19T04:33:57;5.78;;;4.10;;
15408;SDS011;7803;48.130;13.788;2023-09-19T04:37:06;4.63;;;4.10;;
15408;SDS011;7803;48.130;13.788;2023-09-19T04:40:09;4.80;;;4.10;;
15408;SDS011;7803;48.130;13.788;2023-09-19T04:43:14;4.47;;;3.80;;
15408;SDS011;7803;48.130;13.788;2023-09-19T04:46:17;4.60;;;4.20;;
15408;SDS011;7803;48.130;13.788;2023-09-19T04:49:19;4.70;;;4.07;;
15408;SDS011;7803;48.130;13.788;2023-09-19T04:52:22;5.25;;;4.32;;
15408;SDS011;7803;48.130;13.788;2023-09-19T04:55:24;5.25;;;4.50;;
15408;SDS011;7803;48.130;13.788;2023-09-19T04:58:26;5.78;;;4.30;;
15408;SDS011;7803;48.130;13.788;2023-09-19T05:01:28;5.88;;;4.30;;
15408;SDS011;7803;48.130;13.788;2023-09-19T05:04:30;5.28;;;4.30;;
15408;SDS011;7803;48.130;13.788;2023-09-19T05:07:34;6.90;;;5.05;;
15408;SDS011;7803;48.130;13.788;2023-09-19T05:10:36;6.38;;;4.53;;
15408;SDS011;7803;48.130;13.788;2023-09-19T05:13:39;5.22;;;4.18;;
15408;SDS011;7803;48.130;13.788;2023-09-19T05:16:41;5.13;;;3.85;;
15408;SDS011;7803;48.130;13.788;2023-09-19T05:19:43;5.72;;;4.65;;
15408;SDS011;7803;48.130;13.788;2023-09-19T05:22:47;6.40;;;4.82;;
15408;SDS011;7803;48.130;13.788;2023-09-19T05:25:50;6.05;;;4.40;;
15408;SDS011;7803;48.130;13.788;2023-09-19T05:28:52;5.13;;;4.20;;
15408;SDS011;7803;48.130;13.788;2023-09-19T05:31:54;5.90;;;4.10;;
15408;SDS011;7803;48.130;13.788;2023-09-19T05:34:56;5.82;;;4.10;;
15408;SDS011;7803;48.130;13.788;2023-09-19T05:38:00;4.25;;;3.58;;
15408;SDS011;7803;48.130;13.788;2023-09-19T05:41:02;4.13;;;3.50;;
15408;SDS011;7803;48.130;13.788;2023-09-19T05:44:04;3.92;;;3.28;;
15408;SDS011;7803;48.130;13.788;2023-09-19T05:47:07;5.68;;;3.53;;
15408;SDS011;7803;48.130;13.788;2023-09-19T05:50:09;3.85;;;2.90;;
15408;SDS011;7803;48.130;13.788;2023-09-19T05:53:13;12.95;;;3.40;;
15408;SDS011;7803;48.130;13.788;2023-09-19T05:56:16;5.00;;;2.83;;
15408;SDS011;7803;48.130;13.788;2023-09-19T05:59:19;4.20;;;2.55;;
15408;SDS011;7803;48.130;13.788;2023-09-19T06:02:21;4.88;;;3.10;;
15408;SDS011;7803;48.130;13.788;2023-09-19T06:05:23;4.03;;;2.55;;
15408;SDS011;7803;48.130;13.788;2023-09-19T06:08:28;4.45;;;2.75;;
15408;SDS011;7803;48.130;13.788;2023-09-19T06:11:31;5.20;;;2.95;;
15408;SDS011;7803;48.130;13.788;2023-09-19T06:14:34;4.88;;;2.60;;
15408;SDS011;7803;48.130;13.788;2023-09-19T06:17:36;5.65;;;2.55;;
15408;SDS011;7803;48.130;13.788;2023-09-19T06:20:38;5.30;;;2.38;;
15408;SDS011;7803;48.130;13.788;2023-09-19T06:23:45;4.07;;;2.05;;
15408;SDS011;7803;48.130;13.788;2023-09-19T06:26:47;3.53;;;1.88;;
15408;SDS011;7803;48.130;13.788;2023-09-19T06:29:49;3.92;;;2.10;;
15408;SDS011;7803;48.130;13.788;2023-09-19T06:32:55;5.05;;;1.85;;
15408;SDS011;7803;48.130;13.788;2023-09-19T06:35:57;3.10;;;1.92;;
15408;SDS011;7803;48.130;13.788;2023-09-19T06:39:01;3.47;;;2.17;;
15408;SDS011;7803;48.130;13.788;2023-09-19T06:42:06;4.35;;;2.22;;
15408;SDS011;7803;48.130;13.788;2023-09-19T06:45:09;2.45;;;1.63;;
15408;SDS011;7803;48.130;13.788;2023-09-19T06:48:13;4.47;;;2.00;;
15408;SDS011;7803;48.130;13.788;2023-09-19T06:51:15;6.68;;;2.70;;
15408;SDS011;7803;48.130;13.788;2023-09-19T06:54:19;2.20;;;1.83;;
15408;SDS011;7803;48.130;13.788;2023-09-19T06:57:21;1.77;;;1.50;;
15408;SDS011;7803;48.130;13.788;2023-09-19T07:00:23;2.33;;;1.85;;
15408;SDS011;7803;48.130;13.788;2023-09-19T07:03:25;2.42;;;1.65;;
15408;SDS011;7803;48.130;13.788;2023-09-19T07:06:28;2.10;;;1.60;;
15408;SDS011;7803;48.130;13.788;2023-09-19T07:09:32;2.40;;;1.90;;
15408;SDS011;7803;48.130;13.788;2023-09-19T07:12:35;3.58;;;1.90;;
15408;SDS011;7803;48.130;13.788;2023-09-19T07:15:37;3.97;;;2.08;;
15408;SDS011;7803;48.130;13.788;2023-09-19T07:18:46;6.90;;;2.90;;
15408;SDS011;7803;48.130;13.788;2023-09-19T07:21:48;4.00;;;2.33;;
15408;SDS011;7803;48.130;13.788;2023-09-19T07:24:52;2.42;;;1.88;;
15408;SDS011;7803;48.130;13.788;2023-09-19T07:27:54;3.25;;;1.70;;
15408;SDS011;7803;48.130;13.788;2023-09-19T07:31:01;2.80;;;1.98;;
15408;SDS011;7803;48.130;13.788;2023-09-19T07:34:05;2.63;;;1.73;;
15408;SDS011;7803;48.130;13.788;2023-09-19T07:37:08;2.60;;;1.90;;
15408;SDS011;7803;48.130;13.788;2023-09-19T07:40:12;2.42;;;1.70;;
15408;SDS011;7803;48.130;13.788;2023-09-19T07:43:14;2.53;;;1.75;;
15408;SDS011;7803;48.130;13.788;2023-09-19T07:46:18;3.15;;;1.80;;
15408;SDS011;7803;48.130;13.788;2023-09-19T07:49:21;2.53;;;1.80;;
15408;SDS011;7803;48.130;13.788;2023-09-19T07:52:22;2.35;;;1.85;;
15408;SDS011;7803;48.130;13.788;2023-09-19T07:55:26;3.03;;;1.90;;
15408;SDS011;7803;48.130;13.788;2023-09-19T07:58:29;3.90;;;1.90;;
15408;SDS011;7803;48.130;13.788;2023-09-19T08:01:31;3.95;;;2.22;;
15408;SDS011;7803;48.130;13.788;2023-09-19T08:04:33;2.22;;;1.70;;
15408;SDS011;7803;48.130;13.788;2023-09-19T08:07:35;2.92;;;1.90;;
15408;SDS011;7803;48.130;13.788;2023-09-19T08:10:39;3.60;;;2.22;;
15408;SDS011;7803;48.130;13.788;2023-09-19T08:13:42;2.72;;;1.73;;
15408;SDS011;7803;48.130;13.788;2023-09-19T08:16:45;3.45;;;1.90;;
15408;SDS011;7803;48.130;13.788;2023-09-19T08:19:48;2.72;;;1.95;;
15408;SDS011;7803;48.130;13.788;2023-09-19T08:22:53;3.88;;;1.90;;
15408;SDS011;7803;48.130;13.788;2023-09-19T08:25:57;4.05;;;1.80;;
15408;SDS011;7803;48.130;13.788;2023-09-19T08:29:03;2.97;;;1.70;;
15408;SDS011;7803;48.130;13.788;2023-09-19T08:32:07;1.52;;;1.40;;
15408;SDS011;7803;48.130;13.788;2023-09-19T08:35:09;3.20;;;1.90;;
15408;SDS011;7803;48.130;13.788;2023-09-19T08:38:11;3.70;;;2.05;;
15408;SDS011;7803;48.130;13.788;2023-09-19T08:41:16;3.28;;;1.50;;
15408;SDS011;7803;48.130;13.788;2023-09-19T08:44:19;2.88;;;1.80;;
15408;SDS011;7803;48.130;13.788;2023-09-19T08:47:24;3.15;;;1.88;;
15408;SDS011;7803;48.130;13.788;2023-09-19T08:50:37;2.85;;;1.90;;
15408;SDS011;7803;48.130;13.788;2023-09-19T08:53:47;3.25;;;1.73;;
15408;SDS011;7803;48.130;13.788;2023-09-19T08:56:54;2.65;;;1.80;;
15408;SDS011;7803;48.130;13.788;2023-09-19T08:59:59;3.05;;;1.80;;
15408;SDS011;7803;48.130;13.788;2023-09-19T09:03:06;4.25;;;2.17;;
15408;SDS011;7803;48.130;13.788;2023-09-19T09:06:12;2.13;;;1.70;;
15408;SDS011;7803;48.130;13.788;2023-09-19T09:09:15;4.30;;;2.30;;
15408;SDS011;7803;48.130;13.788;2023-09-19T09:12:19;4.55;;;2.22;;
15408;SDS011;7803;48.130;13.788;2023-09-19T09:15:22;2.88;;;1.80;;
15408;SDS011;7803;48.130;13.788;2023-09-19T09:18:25;2.05;;;1.65;;
15408;SDS011;7803;48.130;13.788;2023-09-19T09:21:27;4.22;;;2.13;;
15408;SDS011;7803;48.130;13.788;2023-09-19T09:24:29;2.50;;;1.70;;
15408;SDS011;7803;48.130;13.788;2023-09-19T09:27:35;2.47;;;1.40;;
15408;SDS011;7803;48.130;13.788;2023-09-19T09:30:37;1.90;;;1.60;;
15408;SDS011;7803;48.130;13.788;2023-09-19T09:33:39;2.10;;;1.50;;
15408;SDS011;7803;48.130;13.788;2023-09-19T09:36:43;3.70;;;1.90;;
15408;SDS011;7803;48.130;13.788;2023-09-19T09:39:53;2.67;;;1.80;;
15408;SDS011;7803;48.130;13.788;2023-09-19T09:42:59;2.92;;;1.80;;
15408;SDS011;7803;48.130;13.788;2023-09-19T09:46:08;2.85;;;1.80;;
15408;SDS011;7803;48.130;13.788;2023-09-19T09:49:29;2.58;;;1.73;;
15408;SDS011;7803;48.130;13.788;2023-09-19T09:52:44;2.47;;;1.70;;
15408;SDS011;7803;48.130;13.788;2023-09-19T09:56:02;2.03;;;1.52;;
15408;SDS011;7803;48.130;13.788;2023-09-19T09:59:08;2.00;;;1.50;;
15408;SDS011;7803;48.130;13.788;2023-09-19T10:02:18;2.30;;;1.30;;
15408;SDS011;7803;48.130;13.788;2023-09-19T10:05:24;2.92;;;1.50;;
15408;SDS011;7803;48.130;13.788;2023-09-19T10:08:34;2.83;;;1.50;;
15408;SDS011;7803;48.130;13.788;2023-09-19T10:11:38;3.53;;;1.75;;
15408;SDS011;7803;48.130;13.788;2023-09-19T10:14:44;2.97;;;1.85;;
15408;SDS011;7803;48.130;13.788;2023-09-19T10:17:47;13.20;;;11.82;;
15408;SDS011;7803;48.130;13.788;2023-09-19T10:20:50;5.20;;;3.60;;
15408;SDS011;7803;48.130;13.788;2023-09-19T10:23:52;3.95;;;3.63;;
15408;SDS011;7803;48.130;13.788;2023-09-19T10:26:56;8.35;;;7.55;;
15408;SDS011;7803;48.130;13.788;2023-09-19T10:30:02;19.77;;;18.20;;
15408;SDS011;7803;48.130;13.788;2023-09-19T10:33:08;24.23;;;22.30;;
15408;SDS011;7803;48.130;13.788;2023-09-19T10:36:10;22.10;;;20.48;;
15408;SDS011;7803;48.130;13.788;2023-09-19T10:39:14;16.30;;;15.20;;
15408;SDS011;7803;48.130;13.788;2023-09-19T10:42:19;16.85;;;15.55;;
15408;SDS011;7803;48.130;13.788;2023-09-19T10:45:23;13.02;;;12.07;;
15408;SDS011;7803;48.130;13.788;2023-09-19T10:48:26;13.68;;;12.70;;
15408;SDS011;7803;48.130;13.788;2023-09-19T10:51:29;13.85;;;12.80;;
15408;SDS011;7803;48.130;13.788;2023-09-19T10:54:33;12.75;;;11.75;;
15408;SDS011;7803;48.130;13.788;2023-09-19T10:57:37;13.10;;;12.10;;
15408;SDS011;7803;48.130;13.788;2023-09-19T11:00:53;13.18;;;12.18;;
15408;SDS011;7803;48.130;13.788;2023-09-19T11:07:23;11.73;;;10.63;;
15408;SDS011;7803;48.130;13.788;2023-09-19T11:10:44;12.45;;;11.48;;
15408;SDS011;7803;48.130;13.788;2023-09-19T11:13:46;15.82;;;13.95;;
15408;SDS011;7803;48.130;13.788;2023-09-19T11:17:32;25.42;;;16.35;;
15408;SDS011;7803;48.130;13.788;2023-09-19T11:20:34;31.02;;;20.23;;
15408;SDS011;7803;48.130;13.788;2023-09-19T11:24:05;32.08;;;20.50;;
15408;SDS011;7803;48.130;13.788;2023-09-19T11:27:35;26.02;;;17.92;;
15408;SDS011;7803;48.130;13.788;2023-09-19T11:34:55;23.33;;;15.60;;
15408;SDS011;7803;48.130;13.788;2023-09-19T11:38:09;21.50;;;14.70;;
15408;SDS011;7803;48.130;13.788;2023-09-19T11:44:42;18.55;;;13.20;;
15408;SDS011;7803;48.130;13.788;2023-09-19T11:47:44;16.48;;;13.02;;
15408;SDS011;7803;48.130;13.788;2023-09-19T11:50:47;19.48;;;12.65;;
15408;SDS011;7803;48.130;13.788;2023-09-19T11:53:51;19.55;;;12.68;;
15408;SDS011;7803;48.130;13.788;2023-09-19T11:56:55;16.83;;;12.65;;
15408;SDS011;7803;48.130;13.788;2023-09-19T11:59:58;18.33;;;12.57;;
15408;SDS011;7803;48.130;13.788;2023-09-19T12:03:00;20.90;;;12.57;;
15408;SDS011;7803;48.130;13.788;2023-09-19T12:06:12;16.55;;;11.90;;
15408;SDS011;7803;48.130;13.788;2023-09-19T12:09:15;16.67;;;11.40;;
15408;SDS011;7803;48.130;13.788;2023-09-19T12:12:22;16.92;;;11.68;;
15408;SDS011;7803;48.130;13.788;2023-09-19T12:15:27;16.42;;;11.70;;
15408;SDS011;7803;48.130;13.788;2023-09-19T12:18:34;19.60;;;12.65;;
15408;SDS011;7803;48.130;13.788;2023-09-19T12:21:36;25.48;;;13.85;;
15408;SDS011;7803;48.130;13.788;2023-09-19T12:24:40;25.98;;;13.85;;
15408;SDS011;7803;48.130;13.788;2023-09-19T12:27:46;32.15;;;15.07;;
15408;SDS011;7803;48.130;13.788;2023-09-19T12:30:49;27.60;;;13.15;;
15408;SDS011;7803;48.130;13.788;2023-09-19T12:33:55;25.08;;;13.32;;
15408;SDS011;7803;48.130;13.788;2023-09-19T12:37:05;25.75;;;13.05;;
15408;SDS011;7803;48.130;13.788;2023-09-19T12:40:12;24.25;;;13.27;;
15408;SDS011;7803;48.130;13.788;2023-09-19T12:43:19;23.60;;;12.18;;
15408;SDS011;7803;48.130;13.788;2023-09-19T12:46:22;21.73;;;11.85;;
15408;SDS011;7803;48.130;13.788;2023-09-19T12:49:25;17.92;;;10.77;;
15408;SDS011;7803;48.130;13.788;2023-09-19T12:52:33;20.25;;;11.13;;
15408;SDS011;7803;48.130;13.788;2023-09-19T12:55:36;20.33;;;11.25;;
15408;SDS011;7803;48.130;13.788;2023-09-19T12:58:49;26.70;;;12.27;;
15408;SDS011;7803;48.130;13.788;2023-09-19T13:01:54;32.92;;;14.65;;
15408;SDS011;7803;48.130;13.788;2023-09-19T13:05:06;30.35;;;14.25;;
15408;SDS011;7803;48.130;13.788;2023-09-19T13:08:17;27.63;;;12.98;;
15408;SDS011;7803;48.130;13.788;2023-09-19T13:11:20;24.92;;;12.18;;
15408;SDS011;7803;48.130;13.788;2023-09-19T13:14:25;24.70;;;11.93;;
15408;SDS011;7803;48.130;13.788;2023-09-19T13:17:42;24.77;;;12.45;;
15408;SDS011;7803;48.130;13.788;2023-09-19T13:20:55;19.77;;;10.95;;
15408;SDS011;7803;48.130;13.788;2023-09-19T13:24:19;23.58;;;11.57;;
15408;SDS011;7803;48.130;13.788;2023-09-19T13:27:23;18.75;;;9.93;;
15408;SDS011;7803;48.130;13.788;2023-09-19T13:30:26;17.90;;;9.68;;
15408;SDS011;7803;48.130;13.788;2023-09-19T13:33:29;14.98;;;8.60;;
15408;SDS011;7803;48.130;13.788;2023-09-19T13:36:32;13.43;;;8.38;;
15408;SDS011;7803;48.130;13.788;2023-09-19T13:39:34;17.33;;;8.85;;
15408;SDS011;7803;48.130;13.788;2023-09-19T13:42:36;12.40;;;8.30;;
15408;SDS011;7803;48.130;13.788;2023-09-19T13:45:40;16.30;;;8.45;;
15408;SDS011;7803;48.130;13.788;2023-09-19T13:48:43;13.70;;;7.93;;
15408;SDS011;7803;48.130;13.788;2023-09-19T13:51:45;13.50;;;8.15;;
15408;SDS011;7803;48.130;13.788;2023-09-19T13:54:47;11.77;;;7.47;;
15408;SDS011;7803;48.130;13.788;2023-09-19T13:57:49;14.30;;;7.80;;
15408;SDS011;7803;48.130;13.788;2023-09-19T14:00:57;14.65;;;7.40;;
15408;SDS011;7803;48.130;13.788;2023-09-19T14:04:00;13.65;;;7.40;;
15408;SDS011;7803;48.130;13.788;2023-09-19T14:07:02;12.55;;;7.25;;
15408;SDS011;7803;48.130;13.788;2023-09-19T14:10:05;10.68;;;6.40;;
15408;SDS011;7803;48.130;13.788;2023-09-19T14:13:08;10.35;;;6.20;;
15408;SDS011;7803;48.130;13.788;2023-09-19T14:16:12;8.73;;;5.85;;
15408;SDS011;7803;48.130;13.788;2023-09-19T14:19:14;9.20;;;5.90;;
15408;SDS011;7803;48.130;13.788;2023-09-19T14:22:16;8.43;;;5.72;;
15408;SDS011;7803;48.130;13.788;2023-09-19T14:25:18;10.55;;;6.28;;
15408;SDS011;7803;48.130;13.788;2023-09-19T14:28:20;9.10;;;5.93;;
15408;SDS011;7803;48.130;13.788;2023-09-19T14:31:24;10.07;;;5.80;;
15408;SDS011;7803;48.130;13.788;2023-09-19T14:34:27;10.48;;;5.55;;
15408;SDS011;7803;48.130;13.788;2023-09-19T14:37:29;8.88;;;6.00;;
15408;SDS011;7803;48.130;13.788;2023-09-19T14:40:32;9.27;;;5.53;;
15408;SDS011;7803;48.130;13.788;2023-09-19T14:43:36;7.78;;;5.15;;
15408;SDS011;7803;48.130;13.788;2023-09-19T14:46:39;7.85;;;5.20;;
15408;SDS011;7803;48.130;13.788;2023-09-19T14:49:41;7.93;;;4.75;;
15408;SDS011;7803;48.130;13.788;2023-09-19T14:52:43;11.73;;;5.30;;
15408;SDS011;7803;48.130;13.788;2023-09-19T14:55:45;7.78;;;5.25;;
15408;SDS011;7803;48.130;13.788;2023-09-19T14:58:52;8.68;;;4.95;;
15408;SDS011;7803;48.130;13.788;2023-09-19T15:01:57;10.77;;;5.35;;
15408;SDS011;7803;48.130;13.788;2023-09-19T15:05:00;10.77;;;5.88;;
15408;SDS011;7803;48.130;13.788;2023-09-19T15:08:04;9.63;;;5.05;;
15408;SDS011;7803;48.130;13.788;2023-09-19T15:11:07;10.25;;;5.10;;
15408;SDS011;7803;48.130;13.788;2023-09-19T15:14:10;7.68;;;4.80;;
15408;SDS011;7803;48.130;13.788;2023-09-19T15:17:15;7.50;;;4.93;;
15408;SDS011;7803;48.130;13.788;2023-09-19T15:20:19;9.77;;;4.97;;
15408;SDS011;7803;48.130;13.788;2023-09-19T15:23:23;7.25;;;4.55;;
15408;SDS011;7803;48.130;13.788;2023-09-19T15:26:26;9.70;;;4.95;;
15408;SDS011;7803;48.130;13.788;2023-09-19T15:29:30;7.38;;;4.80;;
15408;SDS011;7803;48.130;13.788;2023-09-19T15:32:35;7.47;;;4.85;;
15408;SDS011;7803;48.130;13.788;2023-09-19T15:35:39;9.70;;;4.63;;
15408;SDS011;7803;48.130;13.788;2023-09-19T15:42:08;7.38;;;4.78;;
15408;SDS011;7803;48.130;13.788;2023-09-19T15:45:11;6.00;;;4.40;;
15408;SDS011;7803;48.130;13.788;2023-09-19T15:48:17;7.20;;;4.78;;
15408;SDS011;7803;48.130;13.788;2023-09-19T15:51:22;7.57;;;4.85;;
15408;SDS011;7803;48.130;13.788;2023-09-19T15:54:26;8.60;;;4.90;;
15408;SDS011;7803;48.130;13.788;2023-09-19T15:57:30;7.55;;;4.95;;
15408;SDS011;7803;48.130;13.788;2023-09-19T16:00:34;7.50;;;4.80;;
15408;SDS011;7803;48.130;13.788;2023-09-19T16:03:45;7.45;;;4.80;;
15408;SDS011;7803;48.130;13.788;2023-09-19T16:06:50;6.60;;;4.60;;
15408;SDS011;7803;48.130;13.788;2023-09-19T16:09:54;6.85;;;4.43;;
15408;SDS011;7803;48.130;13.788;2023-09-19T16:12:58;7.18;;;4.75;;
15408;SDS011;7803;48.130;13.788;2023-09-19T16:16:02;8.10;;;4.38;;
15408;SDS011;7803;48.130;13.788;2023-09-19T16:19:07;8.55;;;4.97;;
15408;SDS011;7803;48.130;13.788;2023-09-19T16:22:11;7.25;;;4.60;;
15408;SDS011;7803;48.130;13.788;2023-09-19T16:25:15;8.65;;;5.05;;
15408;SDS011;7803;48.130;13.788;2023-09-19T16:28:19;7.78;;;4.78;;
15408;SDS011;7803;48.130;13.788;2023-09-19T16:31:23;7.22;;;4.45;;
15408;SDS011;7803;48.130;13.788;2023-09-19T16:34:31;6.55;;;4.75;;
15408;SDS011;7803;48.130;13.788;2023-09-19T16:37:36;7.07;;;4.80;;
15408;SDS011;7803;48.130;13.788;2023-09-19T16:40:41;11.85;;;5.82;;
15408;SDS011;7803;48.130;13.788;2023-09-19T16:43:54;10.88;;;5.50;;
15408;SDS011;7803;48.130;13.788;2023-09-19T16:47:00;6.97;;;4.70;;
15408;SDS011;7803;48.130;13.788;2023-09-19T16:50:06;7.43;;;4.78;;
15408;SDS011;7803;48.130;13.788;2023-09-19T16:53:11;7.72;;;4.55;;
15408;SDS011;7803;48.130;13.788;2023-09-19T16:56:15;6.43;;;4.70;;
15408;SDS011;7803;48.130;13.788;2023-09-19T16:59:19;6.57;;;4.63;;
15408;SDS011;7803;48.130;13.788;2023-09-19T17:02:24;6.25;;;4.35;;
15408;SDS011;7803;48.130;13.788;2023-09-19T17:05:30;6.38;;;4.50;;
15408;SDS011;7803;48.130;13.788;2023-09-19T17:08:35;6.40;;;4.43;;
15408;SDS011;7803;48.130;13.788;2023-09-19T17:11:39;5.40;;;4.07;;
15408;SDS011;7803;48.130;13.788;2023-09-19T17:14:43;5.82;;;4.35;;
15408;SDS011;7803;48.130;13.788;2023-09-19T17:17:47;6.22;;;4.32;;
15408;SDS011;7803;48.130;13.788;2023-09-19T17:20:52;5.97;;;4.20;;
15408;SDS011;7803;48.130;13.788;2023-09-19T17:23:56;5.25;;;4.25;;
15408;SDS011;7803;48.130;13.788;2023-09-19T17:27:00;12.52;;;8.32;;
15408;SDS011;7803;48.130;13.788;2023-09-19T17:30:05;51.30;;;22.00;;
15408;SDS011;7803;48.130;13.788;2023-09-19T17:33:10;40.38;;;22.85;;
15408;SDS011;7803;48.130;13.788;2023-09-19T17:36:17;22.05;;;11.63;;
15408;SDS011;7803;48.130;13.788;2023-09-19T17:39:23;13.65;;;8.57;;
15408;SDS011;7803;48.130;13.788;2023-09-19T17:42:27;13.90;;;8.13;;
15408;SDS011;7803;48.130;13.788;2023-09-19T17:45:33;15.00;;;8.13;;
15408;SDS011;7803;48.130;13.788;2023-09-19T17:48:37;12.27;;;7.57;;
15408;SDS011;7803;48.130;13.788;2023-09-19T17:51:45;12.57;;;7.55;;
15408;SDS011;7803;48.130;13.788;2023-09-19T17:54:53;13.73;;;8.35;;
15408;SDS011;7803;48.130;13.788;2023-09-19T17:57:59;13.02;;;7.82;;
15408;SDS011;7803;48.130;13.788;2023-09-19T18:01:08;12.65;;;7.80;;
15408;SDS011;7803;48.130;13.788;2023-09-19T18:04:13;14.18;;;8.18;;
15408;SDS011;7803;48.130;13.788;2023-09-19T18:07:31;14.10;;;8.18;;
15408;SDS011;7803;48.130;13.788;2023-09-19T18:10:37;13.15;;;7.97;;
15408;SDS011;7803;48.130;13.788;2023-09-19T18:13:42;15.07;;;8.00;;
15408;SDS011;7803;48.130;13.788;2023-09-19T18:16:49;12.38;;;6.75;;
15408;SDS011;7803;48.130;13.788;2023-09-19T18:19:58;11.50;;;7.05;;
15408;SDS011;7803;48.130;13.788;2023-09-19T18:23:05;9.90;;;7.00;;
15408;SDS011;7803;48.130;13.788;2023-09-19T18:26:10;12.75;;;7.72;;
15408;SDS011;7803;48.130;13.788;2023-09-19T18:29:15;10.43;;;6.97;;
15408;SDS011;7803;48.130;13.788;2023-09-19T18:32:22;10.98;;;6.80;;
15408;SDS011;7803;48.130;13.788;2023-09-19T18:35:31;10.95;;;6.82;;
15408;SDS011;7803;48.130;13.788;2023-09-19T18:38:48;12.38;;;6.90;;
15408;SDS011;7803;48.130;13.788;2023-09-19T18:41:53;11.65;;;6.85;;